Time;durP1;ratioP1;P1;durP2;ratioP2;P2;SDS_P1;SDS_P2;PMS_P1;PMS_P2;Temp;Humidity;BMP_temperature;BMP_pressure;BME280_temperature;BME280_humidity;BME280_pressure;Samples;Min_cycle;Max_cycle;Signal;HPM_P1;HPM_P2
2021/07/02 00:01:07;;;;;;;;;31.40;30.60;;;;;25.71;71.94;100683.53;4937597;29;9597;-76
2021/07/02 00:04:04;;;;;;;;;21.00;21.00;;;;;25.41;72.79;100678.84;4924928;29;8846;-78
2021/07/02 00:07:00;;;;;;;;;31.20;29.00;;;;;25.74;72.44;100677.00;4937579;29;8877;-76
2021/07/02 00:09:56;;;;;;;;;33.00;31.80;;;;;25.35;72.94;100682.59;4925069;29;8819;-76
2021/07/02 00:12:51;;;;;;;;;45.00;38.25;;;;;25.21;73.57;100678.00;4937360;29;8851;-76
2021/07/02 00:15:47;;;;;;;;;47.75;40.25;;;;;25.00;74.21;100672.66;4937667;29;8862;-76
2021/07/02 00:18:43;;;;;;;;;39.75;32.50;;;;;24.90;75.02;100668.81;4952259;28;9691;-76
2021/07/02 00:21:38;;;;;;;;;51.50;43.50;;;;;25.03;74.21;100680.31;4956537;28;8977;-76
2021/07/02 00:24:34;;;;;;;;;52.50;43.75;;;;;25.14;74.30;100678.13;4943238;28;8882;-76
2021/07/02 00:27:30;;;;;;;;;67.00;54.33;;;;;24.90;74.59;100674.47;4943440;28;8843;-76
2021/07/02 00:30:25;;;;;;;;;73.33;65.33;;;;;24.72;75.38;100677.59;4956265;28;8918;-76
2021/07/02 00:33:21;;;;;;;;;94.25;89.75;;;;;24.68;75.71;100679.66;4943611;28;9396;-76
2021/07/02 00:36:16;;;;;;;;;103.25;99.50;;;;;24.96;75.16;100684.84;4943319;28;11320;-76
2021/07/02 00:39:12;;;;;;;;;72.67;63.33;;;;;25.10;75.27;100689.50;4943422;28;10924;-76
2021/07/02 00:42:08;;;;;;;;;78.50;75.00;;;;;25.28;74.20;100677.06;4943346;28;9474;-76
2021/07/02 00:45:04;;;;;;;;;76.00;65.75;;;;;25.17;73.40;100668.78;4956157;28;10120;-76
2021/07/02 00:48:03;;;;;;;;;72.50;61.50;;;;;24.91;74.68;100667.56;4943224;28;10422;-75
2021/07/02 00:50:58;;;;;;;;;57.00;47.50;;;;;24.82;75.00;100664.50;4955912;28;8916;-75
2021/07/02 00:53:54;;;;;;;;;59.00;48.25;;;;;24.65;75.84;100658.69;4955697;28;8913;-76
2021/07/02 00:56:49;;;;;;;;;60.00;48.75;;;;;24.46;77.18;100662.25;4955835;28;8866;-76
2021/07/02 00:59:45;;;;;;;;;56.00;46.25;;;;;24.79;76.03;100666.16;4955665;28;9771;-76
2021/07/02 01:02:41;;;;;;;;;42.25;36.25;;;;;24.66;75.81;100676.47;4942047;28;8847;-75
2021/07/02 01:05:36;;;;;;;;;47.50;41.25;;;;;24.62;75.66;100672.91;4942889;28;8859;-75
2021/07/02 01:08:32;;;;;;;;;54.50;43.50;;;;;24.50;76.22;100682.78;4955730;28;8881;-75
2021/07/02 01:11:28;;;;;;;;;49.50;42.50;;;;;24.37;76.66;100685.38;4955645;28;8851;-75
2021/07/02 01:14:23;;;;;;;;;45.50;38.75;;;;;24.34;76.95;100676.94;4942679;28;8827;-75
2021/07/02 01:17:19;;;;;;;;;49.50;42.00;;;;;24.19;77.36;100675.53;4955549;28;9051;-75
2021/07/02 01:20:15;;;;;;;;;51.25;43.25;;;;;24.27;77.47;100677.81;4942361;28;8847;-75
2021/07/02 01:23:10;;;;;;;;;52.75;43.75;;;;;24.85;77.64;100675.78;4942642;28;8850;-75
2021/07/02 01:26:06;;;;;;;;;50.00;42.25;;;;;25.23;74.83;100678.38;4955236;28;8929;-75
2021/07/02 01:29:02;;;;;;;;;44.00;36.75;;;;;25.00;74.29;100679.16;4942289;28;8958;-75
2021/07/02 01:31:58;;;;;;;;;17.75;16.75;;;;;25.08;74.01;100682.69;4955260;28;8878;-75
2021/07/02 01:34:53;;;;;;;;;28.00;28.00;;;;;24.85;74.21;100684.25;4955230;28;8855;-75
2021/07/02 01:37:49;;;;;;;;;38.50;33.75;;;;;24.30;76.57;100690.28;4955057;28;8905;-78
2021/07/02 01:40:44;;;;;;;;;40.50;34.75;;;;;24.60;76.30;100692.31;4955134;28;8878;-75
2021/07/02 01:43:40;;;;;;;;;37.00;34.00;;;;;24.94;74.88;100689.34;4954833;28;8843;-76
2021/07/02 01:46:36;;;;;;;;;38.00;34.25;;;;;24.67;75.17;100695.81;4954720;28;8871;-76
2021/07/02 01:49:31;;;;;;;;;38.50;34.75;;;;;24.34;77.47;100693.91;4954931;28;8839;-75
2021/07/02 01:52:28;;;;;;;;;42.75;37.50;;;;;24.66;77.67;100690.59;4954726;28;9675;-76
2021/07/02 01:55:23;;;;;;;;;35.75;33.00;;;;;25.15;74.73;100694.69;4954739;28;8886;-76
2021/07/02 01:58:19;;;;;;;;;26.25;26.25;;;;;24.87;74.54;100687.44;4954499;28;9670;-75
2021/07/02 02:01:15;;;;;;;;;30.00;29.50;;;;;25.03;75.87;100692.47;4941815;28;9048;-75
2021/07/02 02:04:11;;;;;;;;;33.00;31.00;;;;;25.25;73.18;100694.94;4954616;28;8958;-76
2021/07/02 02:07:07;;;;;;;;;32.80;30.80;;;;;24.92;73.51;100683.31;4941911;28;8831;-75
2021/07/02 02:10:04;;;;;;;;;30.20;30.00;;;;;24.46;75.36;100686.88;4955075;28;9581;-76
2021/07/02 02:13:00;;;;;;;;;35.25;32.50;;;;;24.47;76.40;100686.47;4954441;28;8869;-76
2021/07/02 02:15:55;;;;;;;;;31.00;30.25;;;;;24.65;76.00;100692.63;4954426;28;8847;-76
2021/07/02 02:18:51;;;;;;;;;33.00;30.50;;;;;24.74;75.33;100683.59;4938342;29;8865;-76
2021/07/02 02:21:48;;;;;;;;;27.40;27.40;;;;;24.79;75.04;100680.31;4935035;29;8863;-76
2021/07/02 02:24:44;;;;;;;;;31.75;30.25;;;;;24.84;74.73;100676.97;4935056;29;8858;-76
2021/07/02 02:27:39;;;;;;;;;28.60;28.00;;;;;24.97;74.55;100685.66;4935175;29;8941;-76
2021/07/02 02:30:36;;;;;;;;;33.25;30.75;;;;;24.74;74.56;100682.81;4922466;29;8843;-76
2021/07/02 02:33:31;;;;;;;;;33.50;31.75;;;;;24.66;75.58;100691.41;4922337;29;9667;-75
2021/07/02 02:36:27;;;;;;;;;30.25;30.00;;;;;24.84;75.77;100679.78;4935250;29;8827;-76
2021/07/02 02:39:23;;;;;;;;;29.00;28.50;;;;;24.92;75.22;100672.81;4935203;29;8850;-76
2021/07/02 02:42:18;;;;;;;;;32.00;30.00;;;;;25.08;74.14;100679.88;4934990;29;8945;-77
2021/07/02 02:45:14;;;;;;;;;31.00;30.25;;;;;25.11;74.42;100682.63;4934228;29;9623;-74
2021/07/02 02:48:10;;;;;;;;;39.25;35.00;;;;;25.06;74.41;100688.75;4935161;29;8818;-76
2021/07/02 02:51:05;;;;;;;;;41.75;36.75;;;;;24.72;75.38;100685.28;4935180;29;8858;-76
2021/07/02 02:54:01;;;;;;;;;37.75;34.50;;;;;25.00;76.00;100684.00;4934759;29;8835;-76
2021/07/02 02:57:07;;;;;;;;;49.75;41.75;;;;;24.88;75.28;100680.56;4934953;29;9001;-76
2021/07/02 03:00:08;;;;;;;;;46.50;40.00;;;;;24.85;75.40;100689.13;4934228;29;8869;-76
2021/07/02 03:03:03;;;;;;;;;47.25;40.25;;;;;24.76;75.32;100691.66;4934707;29;8938;-76
2021/07/02 03:05:59;;;;;;;;;45.00;37.50;;;;;24.56;76.71;100698.03;4932833;29;9623;-76
2021/07/02 03:08:54;;;;;;;;;47.00;40.00;;;;;24.07;79.42;100697.44;4918857;29;8941;-76
2021/07/02 03:11:53;;;;;;;;;39.00;35.00;;;;;24.16;79.62;100687.69;4934724;29;8937;-76
2021/07/02 03:14:52;;;;;;;;;44.75;37.50;;;;;24.28;79.36;100678.63;4934915;29;8861;-75
2021/07/02 03:17:48;;;;;;;;;38.25;34.50;;;;;24.56;78.11;100685.91;4927803;29;8827;-75
2021/07/02 03:20:47;;;;;;;;;34.00;32.00;;;;;24.35;78.65;100698.34;4940811;29;8941;-75
2021/07/02 03:23:42;;;;;;;;;33.75;32.00;;;;;24.58;78.49;100697.59;4954174;29;8899;-75
2021/07/02 03:26:38;;;;;;;;;33.25;31.75;;;;;25.03;76.52;100702.94;4956775;28;8865;-75
2021/07/02 03:29:34;;;;;;;;;35.75;32.50;;;;;25.07;75.04;100703.69;4944598;28;8867;-75
2021/07/02 03:32:29;;;;;;;;;35.50;32.00;;;;;25.01;76.09;100703.38;4943493;28;8922;-75
2021/07/02 03:35:26;;;;;;;;;40.00;34.50;;;;;24.85;76.40;100703.25;4957262;28;8848;-74
2021/07/02 03:38:22;;;;;;;;;32.75;31.50;;;;;24.82;75.96;100699.22;4957052;28;8872;-74
2021/07/02 03:41:17;;;;;;;;;29.40;29.40;;;;;24.99;76.07;100688.06;4957022;28;8837;-74
2021/07/02 03:44:13;;;;;;;;;30.40;29.60;;;;;25.16;75.25;100690.63;4957164;28;8836;-75
2021/07/02 03:47:09;;;;;;;;;34.25;32.00;;;;;25.29;75.10;100689.97;4920458;29;8975;-74
2021/07/02 03:50:05;;;;;;;;;32.80;31.80;;;;;25.39;73.42;100675.66;4918066;29;8967;-74
2021/07/02 03:53:01;;;;;;;;;32.80;31.40;;;;;25.31;74.42;100668.53;4918055;29;8845;-75
2021/07/02 03:55:57;;;;;;;;;23.40;23.40;;;;;25.36;74.73;100676.50;4906162;29;8836;-74
2021/07/02 03:58:52;;;;;;;;;29.80;29.60;;;;;25.39;74.68;100675.66;4919207;29;8871;-74
2021/07/02 04:01:48;;;;;;;;;29.60;28.80;;;;;25.64;74.33;100666.66;4941284;28;8936;-74
2021/07/02 04:04:43;;;;;;;;;31.00;30.00;;;;;25.89;73.25;100674.69;4956042;28;9603;-75
2021/07/02 04:07:39;;;;;;;;;34.80;31.40;;;;;25.94;72.78;100682.69;4906081;29;8893;-75
2021/07/02 04:10:35;;;;;;;;;32.20;31.00;;;;;26.01;72.26;100691.03;4906086;29;8943;-74
2021/07/02 04:13:30;;;;;;;;;32.00;30.60;;;;;26.01;72.73;100696.69;4918490;29;8879;-74
2021/07/02 04:16:26;;;;;;;;;30.25;28.75;;;;;26.10;71.26;100698.94;4918643;29;8853;-74
2021/07/02 04:19:22;;;;;;;;;30.80;29.60;;;;;25.75;70.83;100695.59;4908619;29;8866;-75
2021/07/02 04:22:17;;;;;;;;;30.60;29.60;;;;;25.75;70.43;100701.25;4929464;28;8907;-75
2021/07/02 04:25:13;;;;;;;;;30.20;29.20;;;;;25.77;70.28;100687.47;4943719;28;8837;-75
2021/07/02 04:28:09;;;;;;;;;27.40;27.40;;;;;25.91;69.75;100692.03;4943807;28;8846;-75
2021/07/02 04:31:05;;;;;;;;;30.20;29.80;;;;;26.08;69.74;100694.94;4943295;28;8895;-75
2021/07/02 04:34:01;;;;;;;;;30.40;29.80;;;;;25.93;67.28;100700.13;4956066;28;8915;-76
2021/07/02 04:36:56;;;;;;;;;28.00;28.00;;;;;26.00;67.14;100691.47;4942254;28;8856;-75
2021/07/02 04:39:52;;;;;;;;;28.00;28.00;;;;;25.86;67.39;100692.56;4956240;28;8821;-75
2021/07/02 04:42:47;;;;;;;;;24.00;24.00;;;;;25.98;64.38;100696.75;4955793;28;9571;-76
2021/07/02 04:45:43;;;;;;;;;20.00;20.00;;;;;26.13;64.14;100700.88;4943649;28;8851;-75
2021/07/02 04:48:39;;;;;;;;;20.40;20.40;;;;;26.28;66.30;100701.38;4938513;29;8910;-76
2021/07/02 04:51:34;;;;;;;;;23.60;23.60;;;;;26.35;62.16;100695.56;4924356;29;8845;-76
2021/07/02 04:54:30;;;;;;;;;19.40;19.40;;;;;26.31;59.60;100692.81;4923904;29;8857;-76
2021/07/02 04:57:25;;;;;;;;;19.80;19.80;;;;;26.31;60.13;100692.81;4904910;29;8840;-76
2021/07/02 05:00:21;;;;;;;;;19.20;17.80;;;;;26.61;60.41;100688.13;4935568;29;8850;-76
2021/07/02 05:03:17;;;;;;;;;18.40;18.40;;;;;26.79;59.27;100693.34;4932674;28;8840;-76
2021/07/02 05:06:13;;;;;;;;;21.40;21.40;;;;;26.86;59.61;100690.34;4919102;29;8885;-70
2021/07/02 05:09:08;;;;;;;;;18.00;17.40;;;;;26.90;58.68;100685.34;4934737;28;9614;-76
2021/07/02 05:12:04;;;;;;;;;23.80;23.80;;;;;27.23;60.38;100683.34;4930180;29;8876;-78
2021/07/02 05:15:00;;;;;;;;;19.80;18.60;;;;;27.51;57.67;100686.63;4936369;28;8826;-78
2021/07/02 05:17:56;;;;;;;;;17.80;16.80;;;;;27.48;57.50;100685.50;4920007;29;8839;-77
2021/07/02 05:20:52;;;;;;;;;18.00;18.00;;;;;27.73;57.02;100678.34;4925956;29;8842;-79
2021/07/02 05:23:47;;;;;;;;;12.80;12.80;;;;;27.69;55.56;100692.66;4928279;28;8900;-77
2021/07/02 05:26:43;;;;;;;;;14.40;14.40;;;;;27.66;54.69;100693.53;4931653;29;8832;-77
2021/07/02 05:29:39;;;;;;;;;17.80;17.80;;;;;27.71;54.53;100704.38;4918143;29;8932;-78
2021/07/02 05:32:34;;;;;;;;;15.00;15.00;;;;;27.79;54.04;100705.78;4918171;29;8904;-77
2021/07/02 05:35:30;;;;;;;;;3.00;3.00;;;;;27.76;53.84;100709.53;4917922;29;8860;-76
2021/07/02 05:38:26;;;;;;;;;13.20;13.20;;;;;27.65;50.87;100703.28;4904364;29;9610;-75
2021/07/02 05:41:21;;;;;;;;;12.40;12.40;;;;;28.01;50.72;100702.31;4916932;29;8836;-76
2021/07/02 05:44:17;;;;;;;;;12.40;12.40;;;;;28.15;49.69;100690.53;4904106;29;9591;-76
2021/07/02 05:47:13;;;;;;;;;12.00;12.00;;;;;28.05;49.92;100691.63;4916684;29;9619;-76
2021/07/02 05:50:09;;;;;;;;;10.00;10.00;;;;;28.32;48.69;100697.75;4904295;29;8845;-77
2021/07/02 05:53:05;;;;;;;;;13.80;13.80;;;;;28.19;51.35;100699.72;4916581;29;8861;-76
2021/07/02 05:56:00;;;;;;;;;12.20;12.20;;;;;28.61;50.16;100694.00;4904096;29;8836;-76
2021/07/02 05:58:57;;;;;;;;;8.20;8.20;;;;;28.53;44.46;100691.38;4916719;29;8882;-75
2021/07/02 06:01:52;;;;;;;;;11.20;11.20;;;;;28.74;47.51;100691.94;4916244;29;8959;-75
2021/07/02 06:04:49;;;;;;;;;7.60;7.60;;;;;28.66;45.49;100697.06;4904309;29;8849;-75
2021/07/02 06:07:50;;;;;;;;;7.00;7.00;;;;;28.83;44.20;100692.03;4905678;29;8856;-76
2021/07/02 06:10:45;;;;;;;;;9.20;9.20;;;;;28.96;44.71;100692.84;4903920;29;8849;-76
2021/07/02 06:13:42;;;;;;;;;11.60;11.60;;;;;29.04;46.65;100687.72;4916389;29;8845;-76
2021/07/02 06:16:38;;;;;;;;;10.20;10.20;;;;;29.19;47.02;100688.03;4892097;29;8882;-76
2021/07/02 06:19:34;;;;;;;;;12.80;12.80;;;;;29.24;45.09;100682.53;4903866;29;8844;-76
2021/07/02 06:22:29;;;;;;;;;11.00;11.00;;;;;29.46;45.01;100687.50;4916050;29;8931;-77
2021/07/02 06:25:25;;;;;;;;;12.00;12.00;;;;;29.72;45.35;100688.19;4903602;29;8837;-76
2021/07/02 06:28:20;;;;;;;;;8.80;8.80;;;;;29.77;45.93;100684.75;4903330;29;8904;-75
2021/07/02 06:31:16;;;;;;;;;7.60;7.60;;;;;29.41;43.37;100688.06;4903713;29;8841;-76
2021/07/02 06:34:11;;;;;;;;;10.00;10.00;;;;;29.64;43.24;100687.66;4909374;29;8859;-75
2021/07/02 06:37:08;;;;;;;;;10.80;10.80;;;;;30.07;45.30;100686.88;4904242;29;8833;-76
2021/07/02 06:40:05;;;;;;;;;10.40;10.40;;;;;30.24;43.17;100670.34;4904043;29;8849;-75
2021/07/02 06:43:00;;;;;;;;;9.00;9.00;;;;;30.25;42.96;100671.16;4916675;29;8841;-77
2021/07/02 06:45:56;;;;;;;;;9.40;9.40;;;;;30.26;42.32;100669.88;4892128;29;8993;-75
2021/07/02 06:48:51;;;;;;;;;5.60;5.60;;;;;30.05;40.69;100669.41;4916763;29;8861;-76
2021/07/02 06:51:47;;;;;;;;;9.20;9.20;;;;;30.13;42.15;100662.19;4916455;29;8952;-75
2021/07/02 06:54:42;;;;;;;;;8.00;8.00;;;;;30.45;42.65;100665.88;4916211;29;8833;-75
2021/07/02 06:57:38;;;;;;;;;9.80;9.80;;;;;30.28;42.85;100661.66;4916249;29;8841;-76
2021/07/02 07:00:34;;;;;;;;;10.80;10.80;;;;;30.41;41.27;100662.34;4917430;29;9615;-76
2021/07/02 07:03:30;;;;;;;;;9.20;9.20;;;;;30.78;40.12;100676.78;4924303;28;8846;-75
2021/07/02 07:06:25;;;;;;;;;8.80;8.80;;;;;30.38;38.93;100674.72;4883911;29;8853;-75
2021/07/02 07:09:21;;;;;;;;;8.00;8.00;;;;;30.81;37.86;100675.84;4920246;29;8837;-76
2021/07/02 07:12:16;;;;;;;;;10.00;10.00;;;;;30.88;36.99;100666.97;4896387;29;9599;-75
2021/07/02 07:15:13;;;;;;;;;10.00;10.00;;;;;31.10;36.38;100661.16;4933543;28;8833;-72
2021/07/02 07:18:09;;;;;;;;;9.40;9.40;;;;;31.26;36.97;100672.31;4942381;29;8855;-75
2021/07/02 07:21:05;;;;;;;;;10.40;10.40;;;;;31.23;35.23;100671.19;4939112;29;8964;-75
2021/07/02 07:24:00;;;;;;;;;7.20;7.20;;;;;30.77;34.74;100673.13;4938327;29;8842;-75
2021/07/02 07:26:57;;;;;;;;;10.20;10.20;;;;;31.09;35.81;100671.78;4926140;29;8944;-75
2021/07/02 07:29:53;;;;;;;;;10.20;10.20;;;;;31.41;34.93;100666.75;4926016;29;8819;-75
2021/07/02 07:32:52;;;;;;;;;5.80;5.80;;;;;31.44;35.41;100665.78;4925224;29;8972;-74
2021/07/02 07:35:49;;;;;;;;;10.20;10.20;;;;;31.77;36.67;100671.69;4919724;29;8927;-75
2021/07/02 07:38:45;;;;;;;;;7.00;7.00;;;;;31.85;34.42;100672.97;4934895;28;8868;-72
2021/07/02 07:41:40;;;;;;;;;8.60;8.60;;;;;31.84;35.85;100659.16;4938388;29;8850;-73
2021/07/02 07:44:36;;;;;;;;;5.40;5.40;;;;;32.22;34.95;100665.09;4925840;29;8850;-73
2021/07/02 07:47:31;;;;;;;;;5.60;5.60;;;;;32.34;32.81;100661.25;4936081;29;8854;-73
2021/07/02 07:50:30;;;;;;;;;7.60;7.60;;;;;32.46;32.83;100661.53;4907188;29;8911;-75
2021/07/02 07:53:30;;;;;;;;;8.00;8.00;;;;;32.65;32.60;100652.34;4909203;28;8916;-73
2021/07/02 07:56:26;;;;;;;;;9.60;8.40;;;;;32.91;34.23;100655.59;4936991;28;9592;-74
2021/07/02 07:59:28;;;;;;;;;9.60;9.60;;;;;32.95;33.50;100654.59;4941074;28;8860;-72
2021/07/02 08:02:24;;;;;;;;;9.20;9.20;;;;;32.92;33.37;100659.25;4944211;28;8843;-73
2021/07/02 08:05:19;;;;;;;;;8.40;8.40;;;;;32.79;33.31;100664.38;4957914;28;8838;-73
2021/07/02 08:08:16;;;;;;;;;9.00;9.00;;;;;32.95;33.68;100664.00;4950226;29;8854;-73
2021/07/02 08:11:15;;;;;;;;;8.80;8.80;;;;;33.13;34.66;100661.00;4918807;28;8886;-73
2021/07/02 08:14:11;;;;;;;;;7.40;7.40;;;;;33.09;34.71;100654.66;4957186;28;8942;-73
2021/07/02 08:17:07;;;;;;;;;11.00;11.00;;;;;33.12;33.27;100635.69;4957211;28;8848;-73
2021/07/02 08:20:06;;;;;;;;;10.00;10.00;;;;;32.50;33.67;100640.03;4957518;28;8856;-73
2021/07/02 08:23:02;;;;;;;;;9.20;9.20;;;;;32.84;35.16;100640.81;4953322;28;8852;-73
2021/07/02 08:25:58;;;;;;;;;10.20;10.20;;;;;32.86;35.18;100644.00;4919545;29;8884;-74
2021/07/02 08:32:08;;;;;;;;;9.00;9.00;;;;;32.70;35.92;100642.31;4920715;29;8864;-73
2021/07/02 08:35:04;;;;;;;;;9.80;9.80;;;;;32.90;34.50;100639.69;4940333;28;8859;-74
2021/07/02 08:38:00;;;;;;;;;9.60;9.60;;;;;33.15;35.10;100634.72;4906820;29;8869;-74
2021/07/02 08:40:57;;;;;;;;;11.20;11.20;;;;;32.94;35.61;100635.84;4937564;28;8840;-73
2021/07/02 08:43:53;;;;;;;;;9.00;9.00;;;;;33.35;35.82;100629.13;4955997;28;8833;-73
2021/07/02 08:46:49;;;;;;;;;9.60;9.60;;;;;33.80;35.71;100640.69;4956223;28;8873;-73
2021/07/02 08:49:45;;;;;;;;;11.80;11.80;;;;;33.38;34.53;100636.00;4944288;29;9104;-72
2021/07/02 08:52:41;;;;;;;;;8.60;8.60;;;;;33.86;34.31;100636.66;4936151;28;9017;-73
2021/07/02 08:55:39;;;;;;;;;7.00;7.00;;;;;34.12;34.52;100636.06;4942719;29;8858;-73
2021/07/02 08:58:36;;;;;;;;;11.00;11.00;;;;;34.48;33.52;100632.78;4936540;29;8889;-73
2021/07/02 09:01:42;;;;;;;;;10.40;10.40;;;;;33.65;34.44;100626.34;4921197;29;8848;-74
2021/07/02 09:04:44;;;;;;;;;11.20;11.20;;;;;34.40;34.21;100631.63;4914020;29;8936;-74
2021/07/02 09:07:43;;;;;;;;;9.80;9.80;;;;;33.49;35.63;100635.44;4917837;29;8852;-73
2021/07/02 09:10:39;;;;;;;;;10.80;10.80;;;;;33.19;35.58;100623.88;4927592;29;8838;-74
2021/07/02 09:13:42;;;;;;;;;10.00;10.00;;;;;33.49;35.58;100627.63;4908870;28;8873;-74
2021/07/02 09:16:39;;;;;;;;;9.60;9.60;;;;;33.72;36.69;100621.03;4942655;28;8864;-74
2021/07/02 09:19:35;;;;;;;;;14.00;14.00;;;;;33.83;35.59;100628.25;4942584;28;8871;-73
2021/07/02 09:22:44;;;;;;;;;11.60;11.60;;;;;34.10;34.05;100624.31;4954669;28;8884;-72
2021/07/02 09:25:46;;;;;;;;;8.00;8.00;;;;;34.11;35.14;100623.81;4951800;28;8844;-73
2021/07/02 09:28:41;;;;;;;;;9.00;8.60;;;;;34.46;34.56;100617.34;4937264;28;8859;-73
2021/07/02 09:31:37;;;;;;;;;11.40;11.40;;;;;34.64;33.93;100624.91;4953548;28;8848;-73
2021/07/02 09:34:55;;;;;;;;;10.20;10.20;;;;;34.86;33.52;100610.88;4942955;29;8847;-73
2021/07/02 09:37:57;;;;;;;;;8.00;8.00;;;;;34.33;33.91;100617.66;4924044;29;8893;-73
2021/07/02 09:40:55;;;;;;;;;9.20;9.20;;;;;33.92;35.00;100608.09;4924338;29;8827;-73
2021/07/02 09:43:56;;;;;;;;;8.00;8.00;;;;;33.69;33.80;100604.03;4935820;28;8849;-74
2021/07/02 09:46:53;;;;;;;;;11.00;11.00;;;;;34.26;34.34;100597.97;4915019;28;8885;-74
2021/07/02 09:49:49;;;;;;;;;8.40;8.40;;;;;34.69;31.49;100596.28;4939029;28;8902;-72
2021/07/02 09:52:53;;;;;;;;;9.20;9.20;;;;;34.86;31.81;100598.59;4920731;29;8908;-72
2021/07/02 09:55:51;;;;;;;;;7.40;7.40;;;;;34.98;31.97;100589.66;4937597;28;8852;-72
2021/07/02 09:58:47;;;;;;;;;9.60;9.60;;;;;34.85;33.23;100592.06;4953379;28;8856;-72
2021/07/02 10:01:42;;;;;;;;;8.80;8.80;;;;;34.79;31.65;100582.56;4940263;28;8934;-73
2021/07/02 10:05:02;;;;;;;;;10.20;10.20;;;;;34.83;32.83;100586.03;4953482;28;8836;-72
2021/07/02 10:08:04;;;;;;;;;8.40;8.40;;;;;34.85;32.90;100586.31;4922954;29;8869;-72
2021/07/02 10:11:01;;;;;;;;;9.00;9.00;;;;;34.95;32.36;100589.84;4923915;29;8831;-72
2021/07/02 10:14:00;;;;;;;;;7.80;7.80;;;;;34.50;33.12;100577.72;4937778;29;8853;-73
2021/07/02 10:16:57;;;;;;;;;9.00;9.00;;;;;34.96;33.72;100579.94;4924111;29;8969;-72
2021/07/02 10:19:55;;;;;;;;;9.20;9.20;;;;;35.24;33.63;100577.41;4935505;29;8937;-71
2021/07/02 10:22:53;;;;;;;;;10.20;10.20;;;;;35.01;33.13;100571.38;4935609;29;8847;-73
2021/07/02 10:25:52;;;;;;;;;8.80;8.80;;;;;35.36;32.46;100573.38;4935075;29;8858;-72
2021/07/02 10:28:48;;;;;;;;;8.00;8.00;;;;;35.47;32.62;100569.84;4935510;29;8839;-73
2021/07/02 10:31:44;;;;;;;;;9.60;9.60;;;;;35.93;32.31;100575.50;4935082;29;8850;-72
2021/07/02 10:34:40;;;;;;;;;8.00;8.00;;;;;35.54;33.58;100563.63;4922508;29;8961;-72
2021/07/02 10:37:36;;;;;;;;;9.20;9.20;;;;;35.53;33.43;100564.94;4932787;29;8855;-72
2021/07/02 10:40:43;;;;;;;;;10.60;10.60;;;;;35.33;33.11;100566.53;4933951;29;9621;-73
2021/07/02 10:44:00;;;;;;;;;11.20;11.20;;;;;34.68;33.79;100559.47;4935007;29;8866;-72
2021/07/02 10:47:00;;;;;;;;;11.40;11.40;;;;;35.05;31.73;100556.81;4934936;29;8854;-73
2021/07/02 10:49:56;;;;;;;;;9.80;9.80;;;;;34.87;33.21;100560.72;4922264;29;8871;-72
2021/07/02 10:52:52;;;;;;;;;11.80;11.80;;;;;35.10;32.47;100559.75;4922116;29;8881;-72
2021/07/02 10:55:47;;;;;;;;;10.40;10.40;;;;;35.70;32.13;100559.34;4935666;28;8823;-73
2021/07/02 10:58:50;;;;;;;;;13.00;13.00;;;;;35.68;32.05;100565.59;4931276;29;8937;-72
2021/07/02 11:02:08;;;;;;;;;5.20;5.20;;;;;35.62;30.92;100562.66;4921232;29;8860;-71
2021/07/02 11:05:26;;;;;;;;;10.20;10.20;;;;;36.00;30.57;100557.78;4934091;29;8846;-72
2021/07/02 11:08:44;;;;;;;;;11.00;11.00;;;;;35.99;30.63;100558.31;4909892;29;8852;-71
2021/07/02 11:12:09;;;;;;;;;10.60;10.60;;;;;35.85;31.39;100557.09;4924840;29;8842;-72
2021/07/02 11:15:09;;;;;;;;;10.20;10.20;;;;;36.04;30.20;100563.28;4926605;29;8859;-73
2021/07/02 11:18:10;;;;;;;;;12.00;12.00;;;;;36.05;31.12;100554.16;4914533;29;8899;-71
2021/07/02 11:21:14;;;;;;;;;10.60;10.60;;;;;35.98;32.64;100548.88;4903204;29;8857;-72
2021/07/02 11:24:12;;;;;;;;;12.80;12.80;;;;;35.07;30.14;100546.38;4927997;29;9610;-72
2021/07/02 11:27:44;;;;;;;;;15.20;14.20;;;;;35.52;31.94;100544.00;4934375;29;9569;-71
2021/07/02 11:30:42;;;;;;;;;9.00;9.00;;;;;35.18;31.92;100539.97;4934410;29;8851;-74
2021/07/02 11:33:37;;;;;;;;;12.80;12.80;;;;;35.71;31.19;100535.81;4934214;29;8867;-74
2021/07/02 11:36:33;;;;;;;;;11.80;11.80;;;;;35.58;31.27;100539.13;4934366;29;8838;-75
2021/07/02 11:39:30;;;;;;;;;11.60;11.60;;;;;35.14;31.70;100535.75;4934382;29;8839;-75
2021/07/02 11:42:27;;;;;;;;;13.80;12.40;;;;;35.25;32.62;100535.84;4933947;29;8909;-75
2021/07/02 11:45:42;;;;;;;;;10.20;10.20;;;;;35.64;32.77;100530.50;4935148;29;8863;-73
2021/07/02 11:48:41;;;;;;;;;10.80;10.80;;;;;35.50;32.88;100531.44;4937043;29;8905;-73
2021/07/02 11:51:37;;;;;;;;;7.40;7.40;;;;;36.09;30.36;100531.69;4918594;29;8888;-72
2021/07/02 11:54:32;;;;;;;;;7.40;7.40;;;;;36.61;28.83;100531.50;4934352;28;8832;-72
2021/07/02 11:57:29;;;;;;;;;6.00;6.00;;;;;36.24;27.83;100522.88;4957071;28;9531;-73
2021/07/02 12:00:34;;;;;;;;;11.80;10.60;;;;;36.62;26.30;100535.16;4956850;28;8899;-74
2021/07/02 12:03:30;;;;;;;;;6.80;6.80;;;;;37.02;26.55;100539.78;4929927;28;8860;-73
2021/07/02 12:06:28;;;;;;;;;7.00;7.00;;;;;37.13;25.97;100527.53;4938099;29;8862;-71
2021/07/02 12:09:28;;;;;;;;;4.80;4.80;;;;;36.68;27.11;100533.88;4924760;29;8977;-72
2021/07/02 12:12:23;;;;;;;;;1.00;1.00;;;;;36.06;24.85;100526.97;4924731;29;8846;-74
2021/07/02 12:15:27;;;;;;;;;6.80;6.80;;;;;35.94;27.02;100528.16;4937974;28;8835;-73
2021/07/02 12:18:25;;;;;;;;;6.00;6.00;;;;;36.39;27.08;100528.50;4942328;29;8858;-73
2021/07/02 12:21:08;;;;;;;;;5.00;5.00;;;;;36.35;26.49;100522.19;4938577;29;9592;-73
2021/07/02 12:24:07;;;;;;;;;5.60;4.60;;;;;36.88;24.59;100521.41;4938685;29;8831;-72
2021/07/02 12:27:08;;;;;;;;;4.40;4.40;;;;;37.06;23.11;100514.41;4948237;28;8883;-75
2021/07/02 12:30:05;;;;;;;;;4.00;4.00;;;;;37.02;24.20;100508.09;4952930;28;8872;-72
2021/07/02 12:33:00;;;;;;;;;6.40;6.40;;;;;37.02;24.89;100510.97;4956302;28;8837;-72
2021/07/02 12:36:14;;;;;;;;;4.60;4.60;;;;;37.10;26.21;100496.84;4956925;28;8876;-73
2021/07/02 12:39:12;;;;;;;;;3.00;3.00;;;;;36.81;24.34;100504.63;4907350;29;8864;-73
2021/07/02 12:42:15;;;;;;;;;3.80;3.80;;;;;36.64;22.55;100504.53;4906438;29;8864;-72
2021/07/02 12:45:13;;;;;;;;;4.20;4.20;;;;;37.38;22.03;100494.03;4934573;29;8838;-71
2021/07/02 12:48:13;;;;;;;;;3.20;3.20;;;;;36.95;21.30;100485.53;4937883;29;8968;-71
2021/07/02 12:51:10;;;;;;;;;3.80;3.80;;;;;37.44;22.14;100481.19;4937063;29;8850;-72
2021/07/02 12:57:47;;;;;;;;;4.40;3.60;;;;;37.55;22.47;100480.41;4947935;28;9538;-73
2021/07/02 13:00:42;;;;;;;;;3.20;3.20;;;;;37.71;22.21;100476.72;4943232;28;8839;-72
2021/07/02 13:03:39;;;;;;;;;4.00;4.00;;;;;38.15;24.77;100466.44;4956627;28;8838;-73
2021/07/02 13:06:36;;;;;;;;;5.60;5.60;;;;;38.16;24.21;100459.34;4939665;29;8901;-72
2021/07/02 13:09:32;;;;;;;;;5.80;5.80;;;;;38.21;24.88;100467.22;4936687;29;8854;-72
2021/07/02 13:12:28;;;;;;;;;5.40;5.40;;;;;38.00;25.49;100460.97;4937050;29;8861;-73
2021/07/02 13:15:25;;;;;;;;;4.00;4.00;;;;;38.49;23.88;100457.69;4936315;29;8918;-72
2021/07/02 13:18:26;;;;;;;;;7.00;7.00;;;;;38.75;28.41;100455.22;4944238;28;8840;-73
2021/07/02 13:21:37;;;;;;;;;5.80;5.80;;;;;38.50;25.89;100456.38;4916969;29;8947;-72
2021/07/02 13:24:33;;;;;;;;;6.80;6.80;;;;;38.41;25.71;100445.91;4945535;28;8854;-72
2021/07/02 13:36:37;;;;;;;;;5.60;5.60;;;;;38.69;25.79;100437.13;5483448;23;8858;-75
2021/07/02 13:39:33;;;;;;;;;6.00;6.00;;;;;38.63;26.48;100434.25;4975713;28;8829;-74
2021/07/02 13:42:30;;;;;;;;;6.60;6.60;;;;;38.74;26.14;100423.97;4958764;28;8871;-74
2021/07/02 13:45:25;;;;;;;;;6.00;6.00;;;;;38.37;25.74;100416.53;4994236;28;8846;-73
2021/07/02 13:48:21;;;;;;;;;5.60;5.60;;;;;39.09;26.51;100421.09;4981893;28;8837;-74
2021/07/02 13:51:17;;;;;;;;;6.00;6.00;;;;;37.93;24.85;100412.44;4969842;28;8832;-74
2021/07/02 13:54:12;;;;;;;;;6.20;6.20;;;;;38.45;25.67;100413.88;4978160;28;8916;-74
2021/07/02 13:57:08;;;;;;;;;6.00;6.00;;;;;38.59;26.15;100410.63;4980106;28;8842;-74